Terminal Aerodrome Forecast
Issued by NWS Bismarck, ND

Home | Current Version | Previous Version | Text Only | Print | Product List | Glossary Off
Versions: 1 2 3 4 5 6 7 8 9 10 11 12 13 14 15 16 17 18 19 20 21 22 23 24

966
FTUS43 KBIS 210334 AAC
TAFBIS
TAF AMD
KBIS 210334Z 2104/2124 VRB03KT 3SM -FZDZ BR OVC010
     FM210500 VRB03KT 1/2SM FZFG OVC006
     FM211800 36005KT 1SM -FZDZ BR OVC003
     FM212100 34005KT 6SM BR OVC008=

USA.gov is the U.S. government's official web portal to all federal, state and local government web resources and services.